Time;durP1;ratioP1;P1;durP2;ratioP2;P2;SDS_P1;SDS_P2;PMS_P1;PMS_P2;Temp;Humidity;BMP_temperature;BMP_pressure;BME280_temperature;BME280_humidity;BME280_pressure;Samples;Min_cycle;Max_cycle;Signal;HPM_P1;HPM_P2
2023/06/09 01:24:19;;;;;;;8.32;3.60;;;;;;;;;;5817841;23;20036;-81
2023/06/09 01:27:07;;;;;;;5.93;3.35;;;;;;;;;;4961087;29;20034;-81
2023/06/09 01:56:14;;;;;;;5.13;3.72;;;;;;;;;;5704979;23;20050;-82
2023/06/09 02:01:57;;;;;;;6.10;3.35;;;;;;;;;;4924063;29;20020;-81
2023/06/09 02:28:04;;;;;;;3.95;3.55;;;;;;;;;;5762806;23;19913;-80
2023/06/09 02:31:04;;;;;;;6.53;3.72;;;;;;;;;;4960867;29;20146;-81
2023/06/09 02:33:46;;;;;;;4.55;3.55;;;;;;;;;;4962132;29;20032;-81
2023/06/09 02:36:13;;;;;;;5.03;3.58;;;;;;;;;;4962042;29;20055;-82
2023/06/09 03:15:16;;;;;;;4.93;3.47;;;;;;;;;;5931522;23;20814;-84
2023/06/09 03:18:21;;;;;;;4.28;3.85;;;;;;;;;;4944447;29;20056;-82
2023/06/09 03:23:53;;;;;;;6.15;4.55;;;;;;;;;;4961287;29;19902;-83
2023/06/09 03:27:03;;;;;;;6.20;4.03;;;;;;;;;;4959958;29;20015;-83
2023/06/09 03:38:07;;;;;;;4.35;3.60;;;;;;;;;;4959881;29;20023;-82
2023/06/09 03:40:36;;;;;;;4.80;4.10;;;;;;;;;;4959797;29;20020;-84
2023/06/09 03:43:02;;;;;;;5.45;3.95;;;;;;;;;;4959801;29;20065;-84
2023/06/09 03:45:28;;;;;;;4.72;4.10;;;;;;;;;;4959946;29;20016;-84
2023/06/09 03:47:54;;;;;;;5.72;3.97;;;;;;;;;;4959472;29;20027;-83
2023/06/09 03:50:20;;;;;;;4.82;4.38;;;;;;;;;;4959645;29;21309;-82
2023/06/09 03:55:56;;;;;;;5.78;4.00;;;;;;;;;;4959811;29;20039;-84
2023/06/09 03:58:48;;;;;;;5.43;4.25;;;;;;;;;;4946894;29;20028;-82
2023/06/09 04:01:34;;;;;;;5.88;4.13;;;11.40;99.90;;;;;;4960567;29;20022;-82
2023/06/09 04:04:01;;;;;;;4.28;3.83;;;;;;;;;;4959803;28;20032;-83
2023/06/09 04:06:28;;;;;;;5.55;4.65;;;;;;;;;;4960321;29;20071;-83
2023/06/09 04:09:23;;;;;;;7.10;4.03;;;;;;;;;;4959947;29;20039;-83
2023/06/09 04:12:30;;;;;;;4.80;4.00;;;;;;;;;;4960004;29;20027;-82
2023/06/09 04:15:19;;;;;;;4.47;4.03;;;;;;;;;;4960059;28;20048;-82
2023/06/09 04:17:45;;;;;;;7.78;5.10;;;;;;;;;;4941173;29;20119;-83
2023/06/09 04:20:22;;;;;;;10.15;4.60;;;;;;;;;;4940779;29;20012;-82
2023/06/09 04:23:28;;;;;;;5.38;4.25;;;;;;;;;;4936875;29;20016;-83
2023/06/09 04:26:24;;;;;;;7.65;5.07;;;;;;;;;;4941070;29;20039;-82
2023/06/09 04:28:53;;;;;;;5.13;3.85;;;;;;;;;;4939242;29;20015;-83
2023/06/09 04:31:23;;;;;;;5.70;4.88;;;;;;;;;;4940833;29;20080;-82
2023/06/09 04:33:51;;;;;;;5.45;4.05;;;;;;;;;;4940794;29;20031;-83
2023/06/09 04:36:21;;;;;;;7.45;4.80;;;;;;;;;;4939838;29;20012;-82
2023/06/09 04:39:12;;;;;;;5.80;4.75;;;;;;;;;;4939944;29;20047;-83
2023/06/09 04:41:52;;;;;;;5.97;4.53;;;;;;;;;;4941406;29;20033;-84
2023/06/09 04:44:36;;;;;;;5.38;4.38;;;;;;;;;;4917048;29;20024;-82
2023/06/09 04:47:05;;;;;;;6.20;4.15;;;13.60;99.90;;;;;;4915999;29;20625;-79
2023/06/09 04:49:31;;;;;;;7.20;4.57;;;13.90;99.90;;;;;;4901093;29;20036;-86
2023/06/09 04:51:57;;;;;;;5.18;4.57;;;13.90;99.90;;;;;;4914387;29;20039;-80
2023/06/09 04:54:25;;;;;;;5.55;4.38;;;14.10;99.90;;;;;;4911637;29;20390;-81
2023/06/09 04:56:52;;;;;;;5.03;4.35;;;14.40;99.90;;;;;;4911045;29;20032;-82
2023/06/09 04:59:19;;;;;;;4.50;3.63;;;14.50;99.90;;;;;;4915659;29;20028;-85
2023/06/09 05:01:47;;;;;;;6.60;4.10;;;14.60;99.90;;;;;;4916316;29;20286;-84
2023/06/09 05:07:38;;;;;;;12.27;3.95;;;14.60;99.90;;;;;;4924227;29;20524;-85
2023/06/09 05:10:05;;;;;;;5.78;3.80;;;14.60;99.90;;;;;;4914946;29;20059;-86
2023/06/09 05:12:30;;;;;;;4.55;4.05;;;14.60;99.90;;;;;;4914663;29;20118;-85
2023/06/09 05:14:56;;;;;;;6.55;4.85;;;14.60;99.90;;;;;;4917787;29;20496;-84
2023/06/09 05:17:22;;;;;;;10.80;4.55;;;14.60;99.90;;;;;;4912459;29;20048;-86
2023/06/09 05:19:47;;;;;;;7.43;4.53;;;14.70;99.90;;;;;;4901434;29;20243;-84
2023/06/09 05:22:13;;;;;;;7.90;4.68;;;;;;;;;;4918583;29;20103;-85
2023/06/09 05:24:39;;;;;;;7.00;4.78;;;14.90;99.90;;;;;;4918856;29;20032;-87
2023/06/09 05:27:05;;;;;;;5.57;4.80;;;14.90;99.90;;;;;;4903126;29;20024;-83
2023/06/09 05:29:30;;;;;;;7.30;4.70;;;14.90;99.90;;;;;;4902959;29;20382;-83
2023/06/09 05:31:59;;;;;;;7.63;4.43;;;15.20;99.90;;;;;;4901718;29;20063;-83
2023/06/09 05:34:25;;;;;;;7.72;5.45;;;16.20;99.90;;;;;;4900970;29;20024;-83
2023/06/09 05:36:51;;;;;;;7.85;5.32;;;;;;;;;;4917317;29;20035;-80
2023/06/09 05:39:16;;;;;;;7.95;4.78;;;15.40;99.90;;;;;;4915916;29;20028;-82
2023/06/09 05:41:42;;;;;;;8.25;5.38;;;15.40;99.90;;;;;;4902136;29;20028;-81
2023/06/09 05:44:07;;;;;;;6.45;5.53;;;15.50;99.90;;;;;;4908847;29;20069;-81
2023/06/09 05:46:37;;;;;;;8.18;5.82;;;15.60;99.90;;;;;;4923016;29;20032;-82
2023/06/09 05:49:03;;;;;;;8.15;6.00;;;15.70;99.90;;;;;;4900460;29;20397;-81
2023/06/09 05:51:29;;;;;;;14.00;5.93;;;15.80;99.90;;;;;;4921263;29;20028;-84
2023/06/09 05:53:55;;;;;;;10.77;5.82;;;15.90;99.90;;;;;;4904455;29;20043;-81
2023/06/09 05:56:22;;;;;;;10.98;6.07;;;15.90;99.90;;;;;;4898678;29;20509;-84
2023/06/09 05:58:47;;;;;;;6.63;4.93;;;16.00;99.90;;;;;;4919291;29;20319;-80
2023/06/09 06:01:15;;;;;;;6.72;4.95;;;16.30;99.90;;;;;;4901322;29;20343;-82
2023/06/09 06:03:41;;;;;;;7.07;5.25;;;16.40;99.90;;;;;;4912169;29;20146;-79
2023/06/09 06:06:08;;;;;;;8.52;5.80;;;16.60;99.90;;;;;;4899478;29;20052;-77
2023/06/09 06:08:34;;;;;;;9.50;5.55;;;17.00;99.90;;;;;;4917218;29;20040;-84
2023/06/09 06:11:00;;;;;;;7.53;5.05;;;17.10;99.90;;;;;;4917189;29;20115;-82
2023/06/09 06:13:27;;;;;;;10.95;5.57;;;17.20;99.90;;;;;;4897345;29;20036;-85
2023/06/09 06:15:53;;;;;;;5.78;4.85;;;17.40;99.90;;;;;;4899583;29;20028;-80
2023/06/09 06:18:18;;;;;;;11.43;4.63;;;17.60;99.90;;;;;;4916148;29;20130;-81
2023/06/09 06:20:44;;;;;;;7.15;5.53;;;17.80;99.90;;;;;;4918645;29;20118;-80
2023/06/09 06:23:14;;;;;;;8.57;4.93;;;18.00;99.90;;;;;;4943513;29;20024;-80
2023/06/09 06:25:43;;;;;;;6.90;5.13;;;19.70;99.90;;;;;;4944057;29;20039;-80
2023/06/09 06:28:10;;;;;;;7.05;6.10;;;17.70;99.90;;;;;;4927899;29;20039;-79
2023/06/09 06:30:37;;;;;;;9.50;5.40;;;17.70;99.90;;;;;;4945261;29;20035;-79
2023/06/09 06:33:04;;;;;;;9.25;5.22;;;17.70;99.90;;;;;;4930492;29;20035;-79
2023/06/09 06:35:30;;;;;;;9.52;5.45;;;17.70;99.90;;;;;;4947644;29;20020;-79
2023/06/09 06:37:56;;;;;;;11.82;5.50;;;17.90;99.90;;;;;;4927439;29;20047;-80
2023/06/09 06:40:23;;;;;;;7.32;4.60;;;18.70;99.90;;;;;;4939528;29;20239;-77
2023/06/09 06:42:49;;;;;;;9.68;5.57;;;20.10;99.90;;;;;;4923984;29;20038;-77
2023/06/09 06:45:15;;;;;;;8.38;4.68;;;21.30;99.90;;;;;;4918933;29;20122;-81
2023/06/09 06:47:42;;;;;;;18.88;5.18;;;22.00;99.90;;;;;;4919516;29;20157;-79
2023/06/09 06:50:09;;;;;;;8.93;4.55;;;22.60;98.70;;;;;;4916849;29;20042;-82
2023/06/09 06:52:35;;;;;;;4.78;4.10;;;23.50;96.50;;;;;;4934992;29;20031;-78
2023/06/09 06:55:01;;;;;;;5.72;4.22;;;24.70;91.10;;;;;;4933817;29;20532;-81
2023/06/09 06:57:27;;;;;;;9.00;4.50;;;25.20;86.20;;;;;;4916706;29;20127;-79
2023/06/09 06:59:52;;;;;;;7.28;5.13;;;26.20;78.70;;;;;;4916732;29;20083;-80
2023/06/09 07:02:18;;;;;;;6.68;4.25;;;;;;;;;;4927763;29;20032;-83
2023/06/09 07:04:45;;;;;;;7.82;4.63;;;;;;;;;;4932193;29;20062;-80
2023/06/09 07:07:11;;;;;;;6.57;3.88;;;;;;;;;;4933092;29;20036;-82
2023/06/09 07:09:37;;;;;;;6.43;4.85;;;;;;;;;;4932177;29;20055;-81
2023/06/09 07:12:03;;;;;;;5.32;4.45;;;26.30;71.40;;;;;;4931576;29;20019;-79
2023/06/09 07:14:30;;;;;;;6.25;4.32;;;26.60;69.80;;;;;;4933502;29;20079;-81
2023/06/09 07:16:56;;;;;;;9.60;5.13;;;;;;;;;;4912397;29;20461;-82
2023/06/09 07:19:22;;;;;;;8.52;4.63;;;25.50;71.30;;;;;;4913340;29;20437;-82
2023/06/09 07:21:48;;;;;;;9.73;4.50;;;25.40;72.10;;;;;;4897529;29;20075;-81
2023/06/09 07:24:13;;;;;;;5.10;4.45;;;25.40;73.60;;;;;;4897211;29;20082;-81
2023/06/09 07:26:39;;;;;;;7.35;4.82;;;25.20;73.80;;;;;;4896435;29;20039;-81
2023/06/09 07:29:05;;;;;;;9.55;5.15;;;25.60;72.90;;;;;;4897265;29;20040;-81
2023/06/09 07:31:30;;;;;;;6.78;5.03;;;26.00;72.20;;;;;;4897057;29;20039;-81
2023/06/09 07:33:57;;;;;;;6.68;4.53;;;;;;;;;;4897175;29;20130;-81
2023/06/09 07:36:24;;;;;;;4.95;4.45;;;;;;;;;;4912372;29;20031;-82
2023/06/09 07:38:50;;;;;;;5.03;3.80;;;;;;;;;;4913268;29;20032;-81
2023/06/09 07:41:16;;;;;;;6.65;4.75;;;26.30;71.90;;;;;;4912414;29;20039;-79
2023/06/09 07:43:43;;;;;;;5.78;3.70;;;26.00;68.90;;;;;;4896790;29;20032;-81
2023/06/09 07:46:10;;;;;;;5.90;3.95;;;26.50;71.20;;;;;;4914168;29;20082;-86
2023/06/09 07:48:38;;;;;;;5.03;4.28;;;;;;;;;;4896855;29;20493;-80
2023/06/09 07:51:04;;;;;;;6.15;3.80;;;27.30;68.00;;;;;;4912359;29;20032;-78
2023/06/09 07:53:30;;;;;;;4.55;4.05;;;27.30;67.80;;;;;;4896684;29;20031;-78
2023/06/09 07:55:56;;;;;;;5.60;3.00;;;28.10;66.30;;;;;;4916569;29;20442;-81
2023/06/09 07:58:22;;;;;;;10.55;3.53;;;28.10;66.50;;;;;;4906796;29;20103;-82
2023/06/09 08:00:48;;;;;;;4.97;3.70;;;28.10;65.70;;;;;;4896712;29;20052;-82
2023/06/09 08:03:13;;;;;;;7.85;3.88;;;27.80;64.80;;;;;;4896902;29;20329;-81
2023/06/09 08:05:39;;;;;;;6.53;4.28;;;27.30;67.20;;;;;;4914520;29;20031;-84
2023/06/09 08:08:05;;;;;;;8.90;3.53;;;27.30;65.50;;;;;;4896872;29;20036;-85
2023/06/09 08:10:31;;;;;;;3.65;3.05;;;26.60;67.00;;;;;;4896324;29;20483;-85
2023/06/09 08:12:56;;;;;;;4.53;3.30;;;26.60;67.30;;;;;;4912887;29;20028;-76
2023/06/09 08:15:22;;;;;;;5.20;3.20;;;26.80;70.10;;;;;;4912612;29;20024;-76
2023/06/09 08:17:48;;;;;;;4.03;3.47;;;27.30;68.70;;;;;;4929546;29;20048;-76
2023/06/09 08:20:13;;;;;;;4.53;3.35;;;27.50;65.40;;;;;;4931304;29;20417;-76
2023/06/09 08:22:39;;;;;;;3.40;3.10;;;27.50;64.90;;;;;;4931390;29;20024;-76
2023/06/09 08:25:05;;;;;;;5.35;2.83;;;27.60;65.90;;;;;;4931293;29;20038;-78
2023/06/09 08:27:31;;;;;;;3.80;3.42;;;27.70;64.10;;;;;;4931172;29;20094;-76
2023/06/09 08:29:56;;;;;;;3.58;3.25;;;27.50;66.10;;;;;;4931539;29;20093;-76
2023/06/09 08:32:22;;;;;;;6.32;3.50;;;27.70;65.00;;;;;;4931650;29;20342;-76
2023/06/09 08:34:48;;;;;;;3.50;3.20;;;27.80;64.60;;;;;;4914269;29;20031;-76
2023/06/09 08:37:15;;;;;;;3.60;3.25;;;27.80;64.50;;;;;;4914016;29;20471;-76
2023/06/09 08:39:40;;;;;;;5.85;3.33;;;28.20;63.90;;;;;;4931831;29;20091;-76
2023/06/09 08:42:23;;;;;;;5.93;3.53;;;28.60;62.50;;;;;;4930760;29;20083;-76
2023/06/09 08:44:55;;;;;;;4.97;3.58;;;28.10;63.70;;;;;;4931441;29;20018;-76
2023/06/09 08:47:21;;;;;;;4.53;3.53;;;27.70;64.60;;;;;;4915486;29;20028;-76
2023/06/09 08:49:51;;;;;;;4.95;3.50;;;26.40;64.20;;;;;;4934717;29;20515;-76
2023/06/09 08:52:17;;;;;;;4.63;3.90;;;26.30;64.90;;;;;;4935128;29;20044;-76
2023/06/09 08:54:45;;;;;;;5.90;3.58;;;26.20;66.30;;;;;;4934999;29;20016;-76
2023/06/09 08:57:11;;;;;;;7.00;4.18;;;26.10;67.10;;;;;;4934237;29;20038;-75
2023/06/09 08:59:37;;;;;;;6.28;4.03;;;26.50;66.30;;;;;;4934939;29;20020;-83
2023/06/09 09:02:08;;;;;;;9.55;3.65;;;26.50;66.90;;;;;;4917444;29;20034;-75
2023/06/09 09:04:34;;;;;;;4.45;3.45;;;26.80;67.80;;;;;;4934574;29;20028;-74
2023/06/09 09:07:00;;;;;;;4.18;3.17;;;27.00;66.30;;;;;;4934600;29;20036;-74
2023/06/09 09:09:25;;;;;;;3.95;3.55;;;26.70;65.30;;;;;;4934516;29;20440;-76
2023/06/09 09:11:56;;;;;;;4.38;3.83;;;26.70;67.40;;;;;;4934248;29;20031;-74
2023/06/09 09:14:23;;;;;;;3.85;3.20;;;26.90;66.60;;;;;;4934486;29;20016;-74
2023/06/09 09:16:49;;;;;;;6.82;3.45;;;27.40;66.70;;;;;;4934275;29;20082;-73
2023/06/09 09:19:26;;;;;;;6.75;2.88;;;27.60;63.70;;;;;;4934601;29;20030;-76
2023/06/09 09:21:55;;;;;;;5.03;3.22;;;28.30;63.10;;;;;;4934973;29;20023;-77
2023/06/09 09:24:20;;;;;;;3.47;3.13;;;28.90;62.70;;;;;;4931960;29;20032;-76
2023/06/09 09:26:46;;;;;;;7.88;3.25;;;28.60;60.30;;;;;;4934819;29;20090;-77
2023/06/09 09:29:12;;;;;;;3.90;3.13;;;28.50;61.20;;;;;;4933560;29;20505;-77
2023/06/09 09:31:41;;;;;;;4.18;3.15;;;28.10;62.40;;;;;;4933728;29;20123;-76
2023/06/09 09:34:14;;;;;;;3.35;2.83;;;28.40;61.20;;;;;;4933286;29;20445;-77
2023/06/09 09:36:45;;;;;;;4.85;3.88;;;29.50;59.30;;;;;;4935019;29;20020;-76
2023/06/09 09:39:11;;;;;;;3.30;3.00;;;29.40;59.70;;;;;;4933454;29;20023;-76
2023/06/09 09:41:36;;;;;;;5.70;2.97;;;29.70;59.40;;;;;;4933179;29;20126;-77
2023/06/09 09:44:02;;;;;;;4.65;3.28;;;29.20;58.20;;;;;;4935171;29;20462;-76
2023/06/09 09:46:39;;;;;;;3.85;3.10;;;29.70;58.20;;;;;;4934689;29;20032;-77
2023/06/09 09:49:07;;;;;;;3.13;2.83;;;29.70;58.70;;;;;;4934811;29;20481;-77
2023/06/09 09:51:35;;;;;;;3.45;2.70;;;30.10;58.00;;;;;;4935645;29;20440;-77
2023/06/09 09:54:01;;;;;;;2.92;2.70;;;29.40;55.90;;;;;;4931821;29;20132;-77
2023/06/09 09:56:28;;;;;;;3.45;3.15;;;29.40;57.30;;;;;;4930696;29;20027;-76
2023/06/09 09:58:54;;;;;;;5.57;3.13;;;29.70;56.30;;;;;;4931114;29;20577;-77
2023/06/09 10:01:24;;;;;;;3.67;3.20;;;30.10;55.70;;;;;;4931586;29;20374;-76
2023/06/09 10:03:53;;;;;;;5.00;2.80;;;29.50;55.60;;;;;;4936596;29;20102;-77
2023/06/09 10:06:23;;;;;;;3.03;2.72;;;29.10;54.70;;;;;;4933491;29;20024;-77
2023/06/09 10:08:49;;;;;;;6.90;2.95;;;29.20;55.50;;;;;;4934075;29;20020;-78
2023/06/09 10:11:16;;;;;;;2.92;2.70;;;29.20;55.40;;;;;;4933336;29;20518;-77
2023/06/09 10:13:43;;;;;;;3.42;2.10;;;;;;;;;;4932944;29;20063;-81
2023/06/09 10:16:10;;;;;;;5.88;2.58;;;30.40;52.70;;;;;;4923340;29;20057;-78
2023/06/09 10:18:39;;;;;;;3.30;2.80;;;30.80;52.10;;;;;;4894431;29;20035;-79
2023/06/09 10:21:05;;;;;;;4.50;2.63;;;30.80;54.50;;;;;;4901135;29;20052;-78
2023/06/09 10:23:32;;;;;;;3.22;2.58;;;30.90;54.80;;;;;;4895734;29;20051;-79
2023/06/09 10:25:58;;;;;;;3.00;2.70;;;31.20;52.40;;;;;;4896477;29;20043;-79
2023/06/09 10:28:23;;;;;;;5.32;2.60;;;31.10;52.50;;;;;;4895791;29;20033;-77
2023/06/09 10:30:52;;;;;;;4.70;2.50;;;30.80;52.20;;;;;;4896414;29;20043;-79
2023/06/09 10:33:30;;;;;;;;;;;30.40;52.40;;;;;;4897473;29;20056;-80
2023/06/09 10:36:05;;;;;;;2.83;2.58;;;30.60;53.40;;;;;;4893541;29;19911;-78
2023/06/09 10:38:42;;;;;;;3.60;2.90;;;31.40;51.10;;;;;;4901385;29;20020;-79
2023/06/09 10:41:17;;;;;;;3.40;2.50;;;32.20;52.10;;;;;;4895755;29;20029;-79
2023/06/09 10:44:06;;;;;;;2.97;2.55;;;32.50;48.60;;;;;;4893884;29;20056;-78
2023/06/09 10:46:42;;;;;;;5.20;2.63;;;31.50;50.40;;;;;;4898131;29;20278;-76
2023/06/09 10:49:35;;;;;;;3.30;2.78;;;31.80;49.10;;;;;;4895894;29;20045;-77
2023/06/09 10:52:02;;;;;;;4.68;2.30;;;31.80;50.20;;;;;;4892474;29;20033;-77
2023/06/09 10:54:30;;;;;;;5.15;2.47;;;32.40;48.70;;;;;;4894838;29;20094;-76
2023/06/09 10:57:00;;;;;;;6.78;3.08;;;32.20;48.10;;;;;;4898811;29;20493;-76
2023/06/09 10:59:25;;;;;;;2.38;2.17;;;32.20;49.20;;;;;;4893159;29;20092;-76
2023/06/09 11:02:03;;;;;;;2.53;2.22;;;32.70;47.80;;;;;;4893126;29;20482;-78
2023/06/09 11:04:39;;;;;;;3.13;2.80;;;33.00;48.00;;;;;;4892489;29;20557;-76
2023/06/09 11:07:14;;;;;;;3.03;2.78;;;33.20;47.50;;;;;;4894994;29;20081;-76
2023/06/09 11:10:00;;;;;;;3.25;2.72;;;33.30;47.00;;;;;;4891981;29;20040;-76
2023/06/09 11:12:42;;;;;;;3.75;2.38;;;33.60;46.70;;;;;;4873343;29;20044;-77
2023/06/09 11:15:10;;;;;;;4.63;2.90;;;33.90;47.40;;;;;;4892863;29;20024;-77
2023/06/09 11:17:40;;;;;;;4.90;2.58;;;33.90;46.60;;;;;;4908096;29;20389;-76
2023/06/09 11:20:08;;;;;;;3.90;3.20;;;33.90;46.90;;;;;;4911851;29;20028;-77
2023/06/09 11:22:41;;;;;;;5.15;3.03;;;34.00;47.40;;;;;;4913421;29;20413;-76
2023/06/09 11:25:27;;;;;;;3.50;3.20;;;33.70;48.20;;;;;;4913800;29;20028;-77
2023/06/09 11:27:59;;;;;;;3.30;3.00;;;33.40;47.90;;;;;;4906022;29;20040;-77
2023/06/09 11:30:27;;;;;;;5.00;3.85;;;33.20;48.60;;;;;;4913483;29;20111;-78
2023/06/09 11:32:58;;;;;;;3.50;3.13;;;31.90;52.70;;;;;;4912187;29;20031;-76
2023/06/09 11:35:32;;;;;;;4.10;3.70;;;31.90;51.60;;;;;;4913936;29;20394;-78
2023/06/09 11:38:11;;;;;;;4.40;3.00;;;31.90;52.20;;;;;;4913665;29;20485;-77
2023/06/09 11:40:38;;;;;;;6.75;3.40;;;31.40;54.90;;;;;;4913356;29;20032;-76
2023/06/09 11:43:08;;;;;;;4.40;3.90;;;31.20;53.10;;;;;;4912475;29;20401;-77
2023/06/09 11:45:35;;;;;;;5.38;3.75;;;31.40;52.50;;;;;;4912534;29;20085;-77
2023/06/09 11:48:05;;;;;;;3.83;3.28;;;31.60;52.60;;;;;;4913646;29;20115;-76
2023/06/09 11:50:42;;;;;;;5.03;2.92;;;32.50;51.10;;;;;;4912268;29;20445;-76
2023/06/09 11:53:09;;;;;;;3.63;3.20;;;33.10;47.20;;;;;;4913742;29;20499;-77
2023/06/09 11:55:35;;;;;;;4.15;3.45;;;33.70;50.00;;;;;;4913166;29;20028;-77
2023/06/09 11:58:02;;;;;;;3.95;3.47;;;34.80;47.50;;;;;;4913490;29;20043;-77
2023/06/09 12:00:30;;;;;;;6.18;2.83;;;34.90;47.90;;;;;;4913286;29;20028;-77
2023/06/09 12:02:56;;;;;;;5.07;2.75;;;34.20;47.80;;;;;;4913511;29;20036;-77
2023/06/09 12:05:23;;;;;;;5.88;4.38;;;34.10;47.80;;;;;;4913553;29;20039;-77
2023/06/09 12:07:50;;;;;;;4.00;2.97;;;33.70;46.30;;;;;;4913593;29;20024;-77
2023/06/09 12:10:22;;;;;;;3.78;3.22;;;34.30;47.50;;;;;;4913121;29;20047;-77
2023/06/09 12:12:52;;;;;;;5.00;3.53;;;34.50;47.60;;;;;;4912030;29;20115;-77
2023/06/09 12:15:19;;;;;;;5.90;3.35;;;34.90;49.40;;;;;;4912040;29;20028;-77
2023/06/09 12:17:51;;;;;;;4.50;3.60;;;35.10;47.20;;;;;;4914758;29;20041;-76
2023/06/09 12:20:28;;;;;;;4.38;3.00;;;35.20;46.10;;;;;;4915113;29;20039;-78
2023/06/09 12:23:02;;;;;;;5.17;3.10;;;35.60;46.60;;;;;;4915079;29;20115;-76
2023/06/09 12:25:34;;;;;;;3.20;2.65;;;34.30;48.20;;;;;;4915905;29;20039;-76
2023/06/09 12:28:29;;;;;;;4.63;3.65;;;34.60;48.70;;;;;;4917049;29;20032;-76
2023/06/09 12:30:57;;;;;;;3.35;3.05;;;33.90;48.40;;;;;;4916968;29;20119;-76
2023/06/09 12:33:25;;;;;;;2.97;2.58;;;34.30;45.30;;;;;;4917036;29;20103;-77
2023/06/09 12:35:53;;;;;;;4.95;2.67;;;34.70;45.40;;;;;;4916651;29;20087;-78
2023/06/09 12:38:23;;;;;;;3.55;2.78;;;35.80;43.60;;;;;;4915574;29;20039;-76
2023/06/09 12:40:55;;;;;;;4.85;2.63;;;35.70;42.10;;;;;;4915320;29;20031;-78
2023/06/09 12:43:25;;;;;;;2.00;1.90;;;36.60;41.30;;;;;;4933926;29;20055;-79
2023/06/09 12:45:57;;;;;;;3.85;2.30;;;37.40;39.10;;;;;;4935313;29;20024;-79
2023/06/09 12:48:23;;;;;;;3.60;2.10;;;37.70;39.60;;;;;;4935302;29;20066;-77
2023/06/09 12:50:49;;;;;;;3.30;2.33;;;37.90;38.80;;;;;;4934327;29;20063;-77
2023/06/09 12:53:15;;;;;;;2.78;2.58;;;38.30;39.40;;;;;;4937144;29;20078;-77
2023/06/09 12:55:41;;;;;;;2.25;2.15;;;38.20;37.70;;;;;;4928612;29;20517;-77
2023/06/09 12:58:09;;;;;;;3.75;2.85;;;38.20;38.10;;;;;;4946452;29;20016;-77
2023/06/09 13:00:36;;;;;;;5.35;2.33;;;37.40;37.90;;;;;;4946388;29;20043;-77
2023/06/09 13:06:24;;;;;;;2.30;2.17;;;35.90;40.00;;;;;;4944837;29;20090;-75
2023/06/09 13:08:50;;;;;;;2.25;2.00;;;36.30;39.20;;;;;;4945374;29;20023;-75
2023/06/09 13:11:16;;;;;;;4.53;2.90;;;36.40;38.00;;;;;;4928628;29;20050;-75
2023/06/09 13:13:42;;;;;;;2.30;2.20;;;37.00;38.20;;;;;;4945105;29;20251;-76
2023/06/09 13:16:09;;;;;;;2.75;2.28;;;37.10;38.90;;;;;;4945137;29;20039;-77
2023/06/09 13:18:35;;;;;;;2.40;2.20;;;37.60;38.10;;;;;;4927838;29;20075;-77
2023/06/09 13:21:01;;;;;;;4.25;2.40;;;38.30;38.50;;;;;;4944730;29;20035;-76
2023/06/09 13:23:27;;;;;;;7.22;2.40;;;38.50;36.80;;;;;;4927652;29;20239;-77
2023/06/09 13:25:53;;;;;;;3.38;2.10;;;38.50;37.90;;;;;;4927796;29;20051;-76
2023/06/09 13:28:19;;;;;;;2.50;2.30;;;38.70;37.70;;;;;;4927451;29;20024;-75
2023/06/09 13:30:46;;;;;;;6.10;2.33;;;;;;;;;;4927473;29;20038;-77
2023/06/09 13:33:12;;;;;;;4.72;2.20;;;38.50;36.80;;;;;;4944083;29;20048;-75
2023/06/09 13:35:41;;;;;;;2.13;2.03;;;38.50;37.40;;;;;;4927193;29;20106;-76
2023/06/09 13:38:08;;;;;;;4.40;2.45;;;38.30;39.10;;;;;;4928240;29;20031;-77
2023/06/09 13:40:36;;;;;;;4.03;2.25;;;;;;;;;;4927180;29;20042;-75
2023/06/09 13:43:02;;;;;;;2.33;2.13;;;38.70;36.60;;;;;;4944569;29;20063;-76
2023/06/09 13:45:28;;;;;;;3.38;2.60;;;38.90;37.30;;;;;;4944117;29;20091;-75
2023/06/09 13:47:57;;;;;;;2.72;1.98;;;38.70;37.60;;;;;;4944251;29;20015;-76
2023/06/09 13:50:23;;;;;;;1.90;1.80;;;38.90;37.00;;;;;;4944321;29;20098;-77
2023/06/09 13:52:49;;;;;;;5.30;2.83;;;39.30;36.80;;;;;;4923014;29;20028;-75
2023/06/09 13:55:15;;;;;;;4.05;2.60;;;38.90;37.70;;;;;;4943202;29;20039;-78
2023/06/09 13:57:45;;;;;;;2.67;2.47;;;38.80;38.10;;;;;;4926570;29;20027;-80
2023/06/09 14:00:12;;;;;;;6.25;2.35;;;37.80;38.40;;;;;;4926227;29;20070;-77
2023/06/09 14:02:39;;;;;;;4.85;2.72;;;37.70;40.10;;;;;;4925768;29;20390;-75
2023/06/09 14:05:06;;;;;;;2.47;2.28;;;37.80;37.90;;;;;;4925874;29;20067;-78
2023/06/09 14:07:31;;;;;;;5.90;2.58;;;37.70;37.90;;;;;;4942717;29;20023;-78
2023/06/09 14:09:57;;;;;;;2.58;2.38;;;37.40;37.70;;;;;;4927097;29;20039;-78
2023/06/09 14:12:23;;;;;;;2.42;2.22;;;37.00;39.30;;;;;;4926373;29;20024;-76
2023/06/09 14:14:49;;;;;;;2.60;2.40;;;37.40;38.50;;;;;;4942835;29;20075;-77
2023/06/09 14:17:15;;;;;;;5.65;2.10;;;37.50;38.00;;;;;;4942917;29;20055;-79
2023/06/09 14:19:40;;;;;;;5.57;2.28;;;37.50;37.00;;;;;;4943316;29;20052;-75
2023/06/09 14:22:06;;;;;;;2.95;2.60;;;37.80;38.10;;;;;;4941012;29;20358;-76
2023/06/09 14:24:33;;;;;;;3.05;2.30;;;38.20;36.60;;;;;;4941110;29;20027;-76
2023/06/09 14:27:00;;;;;;;2.22;2.10;;;38.40;37.30;;;;;;4943220;29;20028;-75
2023/06/09 14:29:26;;;;;;;2.55;2.35;;;37.90;38.30;;;;;;4950841;29;20099;-81
2023/06/09 14:31:51;;;;;;;2.72;2.53;;;36.60;38.80;;;;;;4926511;29;20031;-78
2023/06/09 14:34:17;;;;;;;3.47;2.72;;;38.50;39.90;;;;;;4941093;29;20020;-76
2023/06/09 14:36:43;;;;;;;3.80;3.50;;;37.70;39.10;;;;;;4942890;29;20027;-77
2023/06/09 14:39:10;;;;;;;4.07;3.33;;;35.80;41.00;;;;;;4925347;29;20024;-75
2023/06/09 14:41:36;;;;;;;3.08;2.88;;;35.30;42.70;;;;;;4941820;29;20135;-76
2023/06/09 14:44:01;;;;;;;4.20;3.00;;;34.60;43.90;;;;;;4942630;29;20030;-76
2023/06/09 14:46:27;;;;;;;7.13;3.03;;;34.60;43.90;;;;;;4940032;29;20058;-77
2023/06/09 14:48:53;;;;;;;3.10;2.80;;;35.10;42.80;;;;;;4942614;29;20028;-77
2023/06/09 14:51:18;;;;;;;3.08;2.88;;;35.80;41.90;;;;;;4943213;29;20304;-78
2023/06/09 14:53:44;;;;;;;3.35;3.05;;;35.80;42.60;;;;;;4925807;29;20357;-77
2023/06/09 14:56:10;;;;;;;4.20;3.00;;;36.00;41.60;;;;;;4942180;29;20028;-77
2023/06/09 14:58:36;;;;;;;3.70;3.33;;;35.70;41.20;;;;;;4922019;29;20196;-77
2023/06/09 15:01:02;;;;;;;3.72;3.42;;;35.80;41.70;;;;;;4940469;29;20189;-77
2023/06/09 15:03:27;;;;;;;19.65;3.80;;;35.00;41.90;;;;;;4939150;29;20036;-75
2023/06/09 15:05:53;;;;;;;3.00;2.80;;;34.30;42.70;;;;;;4940635;29;20034;-78
2023/06/09 15:08:19;;;;;;;5.57;3.53;;;34.50;44.10;;;;;;4940327;29;20039;-76
2023/06/09 15:10:46;;;;;;;6.07;4.07;;;34.10;44.20;;;;;;4942746;29;20292;-80
2023/06/09 15:13:16;;;;;;;3.97;3.20;;;33.00;45.90;;;;;;4920209;29;20527;-77
2023/06/09 15:15:42;;;;;;;5.40;3.53;;;32.40;45.50;;;;;;4942488;29;20120;-77
2023/06/09 15:18:09;;;;;;;4.65;3.45;;;32.50;45.60;;;;;;4940800;29;20036;-78
2023/06/09 15:20:36;;;;;;;3.95;3.53;;;34.30;43.60;;;;;;4942293;29;20031;-79
2023/06/09 15:23:03;;;;;;;3.17;2.90;;;34.50;43.50;;;;;;4941864;29;20316;-79
2023/06/09 15:25:33;;;;;;;3.95;3.25;;;35.00;43.30;;;;;;4942104;29;20063;-76
2023/06/09 15:28:00;;;;;;;5.03;3.03;;;34.40;43.50;;;;;;4925227;29;20027;-77
2023/06/09 15:30:29;;;;;;;3.63;3.33;;;33.20;44.20;;;;;;4924294;29;20062;-77
2023/06/09 15:33:08;;;;;;;3.38;3.08;;;33.20;44.50;;;;;;4941563;29;20020;-79
2023/06/09 15:35:35;;;;;;;5.05;3.13;;;33.80;44.50;;;;;;4924558;29;20106;-77
2023/06/09 15:38:05;;;;;;;3.40;3.10;;;34.10;43.90;;;;;;4924269;29;20035;-76
2023/06/09 15:40:35;;;;;;;4.72;3.03;;;34.40;43.40;;;;;;4942252;29;20035;-76
2023/06/09 15:43:04;;;;;;;3.65;3.30;;;34.30;43.00;;;;;;4924214;29;20035;-76
2023/06/09 15:45:36;;;;;;;;;;;34.30;43.40;;;;;;4941118;29;20038;-77
2023/06/09 15:48:02;;;;;;;7.45;3.28;;;34.00;43.10;;;;;;4939933;29;19903;-79
2023/06/09 15:50:27;;;;;;;3.65;3.22;;;33.80;43.30;;;;;;4924488;29;20097;-77
2023/06/09 15:52:53;;;;;;;5.82;3.35;;;33.90;42.80;;;;;;4941336;29;20028;-78
2023/06/09 15:55:19;;;;;;;5.10;2.83;;;;;;;;;;4941547;29;20034;-76
2023/06/09 15:57:47;;;;;;;3.42;3.08;;;34.30;42.20;;;;;;4940544;29;20027;-80
2023/06/09 16:00:13;;;;;;;5.97;3.50;;;34.70;42.30;;;;;;4924883;29;20031;-78
2023/06/09 16:02:39;;;;;;;3.72;2.83;;;35.50;41.50;;;;;;4940905;29;20256;-80
2023/06/09 16:05:05;;;;;;;3.45;2.60;;;35.90;42.60;;;;;;4924305;29;20063;-77
2023/06/09 16:07:30;;;;;;;4.13;2.58;;;36.50;41.10;;;;;;4920433;29;20292;-77
2023/06/09 16:09:56;;;;;;;3.95;3.00;;;35.80;40.40;;;;;;4928773;29;20059;-80
2023/06/09 16:12:22;;;;;;;3.00;2.63;;;34.70;42.00;;;;;;4940318;29;20032;-77
2023/06/09 16:14:48;;;;;;;20.70;3.83;;;33.50;42.80;;;;;;4939554;29;20098;-77
2023/06/09 16:17:14;;;;;;;5.38;3.50;;;32.90;43.20;;;;;;4936786;29;20040;-78
2023/06/09 16:19:40;;;;;;;4.50;2.78;;;32.40;43.20;;;;;;4920259;29;20031;-79
2023/06/09 16:22:06;;;;;;;3.03;2.72;;;32.20;43.90;;;;;;4938477;29;20043;-79
2023/06/09 16:24:31;;;;;;;7.05;2.97;;;32.40;44.60;;;;;;4918369;29;20360;-78
2023/06/09 16:26:57;;;;;;;4.22;3.33;;;32.40;44.80;;;;;;4915336;29;20016;-79